Friday, February 23, 2018, 6:32 PM GMT
Back to Local

CWQH, Lennoxville

Location: , , Canada Lat: 45.367
Local Time: 6:32 PM GMT (18:32 GMT) Lon: -71.817
Time Zone: GMT Elev: 593 ft

Show me the last for .
Show Coded

Time T Td Feel RH Dir Speed Gust Alt SLP Vis Weather Sky Remarks
2018-02-23 18:00 36 14 26 39 180° 9 18 - - 0 None
2018-02-23 17:00 29 18 - 64 300° 1 - - - 0 None
2018-02-23 16:00 25 18 - 74 200° 2 - - - 0 None
2018-02-23 15:00 21 16 - 79 30° 1 - - - 0 None
2018-02-23 14:00 18 13 11 83 40° 5 - - - 0 None
2018-02-23 13:00 13 10 5 87 40° 5 - - - 0 None
2018-02-23 12:00 10 8 -1 89 40° 7 - - - 0 None
2018-02-23 11:00 10 8 0 91 40° 7 - - - 0 None
2018-02-23 10:00 10 8 2 91 60° 5 - - - 0 None
2018-02-23 09:00 10 9 2 92 70° 5 - - - 0 None
2018-02-23 08:00 11 9 3 91 60° 5 - - - 0 None
2018-02-23 07:00 12 11 3 96 50° 6 - - - 0 None
2018-02-23 06:00 12 10 4 90 50° 5 - - - 0 None
2018-02-23 05:00 14 11 - 90 - Calm - - - 0 None
2018-02-23 04:00 15 12 - 88 60° 1 - - - 0 None
2018-02-23 03:00 17 13 - 84 110° 1 - - - 0 None
2018-02-23 02:00 18 15 - 87 20° 2 - - - 0 None
2018-02-23 01:00 20 12 - 70 40° 2 - - - 0 None
2018-02-23 00:00 22 13 - 67 20° 2 - - - 0 None
2018-02-22 23:00 24 12 - 58 10° 1 - - - 0 None
2018-02-22 22:00 25 11 - 53 340° 1 - - - 0 None
2018-02-22 21:00 25 10 21 52 310° 3 - - - 0 None
2018-02-22 20:00 25 12 21 56 310° 3 - - - 0 None
2018-02-22 19:00 24 9 20 51 320° 3 - - - 0 None

Support USWX by starting your Amazon purchase here.